createdAt,value
2022-08-08T00:00:52.782Z,1.55
2022-08-08T00:03:13.151Z,2.08
2022-08-08T00:06:03.691Z,1.85
2022-08-08T00:08:51.065Z,1.45
2022-08-08T00:11:46.841Z,1.58
2022-08-08T00:15:00.362Z,1.63
2022-08-08T00:17:48.049Z,2.05
2022-08-08T00:20:45.938Z,1.88
2022-08-08T00:23:28.573Z,1.42
2022-08-08T00:26:21.827Z,1.38
2022-08-08T00:29:44.115Z,1.50
2022-08-08T00:32:45.467Z,1.58
2022-08-08T00:35:34.727Z,1.52
2022-08-08T00:38:55.702Z,1.50
2022-08-08T00:41:54.807Z,1.48
2022-08-08T00:45:21.370Z,1.63
2022-08-08T00:48:34.415Z,1.33
2022-08-08T00:51:01.723Z,1.25
2022-08-08T00:54:15.293Z,1.50
2022-08-08T00:56:54.373Z,1.60
2022-08-08T00:59:43.814Z,1.70
2022-08-08T01:03:59.988Z,1.60
2022-08-08T01:06:16.893Z,1.50
2022-08-08T01:08:54.884Z,1.58
2022-08-08T01:11:34.077Z,1.65
2022-08-08T01:14:53.367Z,1.83
2022-08-08T01:17:54.213Z,1.63
2022-08-08T01:20:38.894Z,1.50
2022-08-08T01:24:05.707Z,1.48
2022-08-08T01:27:33.151Z,1.63
2022-08-08T01:30:48.528Z,1.67
2022-08-08T01:34:01.245Z,1.63
2022-08-08T01:37:56.848Z,1.75
2022-08-08T01:40:42.081Z,1.48
2022-08-08T01:43:38.528Z,1.52
2022-08-08T01:46:37.547Z,1.52
2022-08-08T01:49:10.746Z,1.50
2022-08-08T01:52:05.062Z,1.30
2022-08-08T01:56:27.306Z,1.70
2022-08-08T01:58:39.524Z,1.77
2022-08-08T02:01:54.728Z,1.60
2022-08-08T02:04:43.003Z,1.70
2022-08-08T02:07:41.706Z,1.55
2022-08-08T02:10:50.950Z,1.70
2022-08-08T02:13:53.761Z,1.50
2022-08-08T02:16:53.890Z,1.55
2022-08-08T02:20:07.897Z,1.50
2022-08-08T02:23:04.353Z,1.45
2022-08-08T02:25:56.375Z,1.60
2022-08-08T02:29:18.831Z,1.60
2022-08-08T02:32:22.855Z,1.60
2022-08-08T02:35:07.613Z,1.73
2022-08-08T02:37:56.856Z,1.67
2022-08-08T02:40:38.276Z,2.00
2022-08-08T02:44:43.096Z,1.90
2022-08-08T02:46:43.907Z,1.58
2022-08-08T02:49:48.164Z,1.58
2022-08-08T02:52:40.482Z,1.63
2022-08-08T02:55:38.446Z,1.48
2022-08-08T02:58:18.000Z,1.60
2022-08-08T03:01:47.235Z,1.40
2022-08-08T03:05:02.469Z,1.50
2022-08-08T03:07:58.158Z,1.98
2022-08-08T03:11:05.050Z,1.50
2022-08-08T03:16:00.784Z,1.50
2022-08-08T03:17:20.019Z,1.70
2022-08-08T03:20:10.548Z,1.50
2022-08-08T03:22:56.362Z,1.83
2022-08-08T03:25:34.088Z,1.75
2022-08-08T03:28:10.609Z,1.75
2022-08-08T03:30:43.025Z,1.73
2022-08-08T03:33:56.836Z,1.77
2022-08-08T03:36:10.271Z,1.48
2022-08-08T03:38:58.464Z,1.42
2022-08-08T03:42:28.446Z,1.70
2022-08-08T03:44:34.070Z,1.75
2022-08-08T03:47:13.995Z,1.48
2022-08-08T03:50:00.021Z,1.58
2022-08-08T03:52:35.206Z,1.60
2022-08-08T03:55:20.190Z,1.85
2022-08-08T03:58:33.404Z,1.67
2022-08-08T04:01:02.804Z,1.52
2022-08-08T04:03:59.273Z,1.40
2022-08-08T04:06:24.024Z,1.83
2022-08-08T04:08:58.593Z,1.63
2022-08-08T04:11:58.223Z,1.80
2022-08-08T04:14:33.923Z,1.80
2022-08-08T04:17:04.272Z,1.65
2022-08-08T04:19:36.653Z,1.85
2022-08-08T04:22:05.220Z,1.88
2022-08-08T04:24:32.511Z,1.85
2022-08-08T04:27:00.454Z,2.00
2022-08-08T04:29:33.166Z,1.98
2022-08-08T04:32:06.675Z,2.13
2022-08-08T04:34:42.826Z,2.08
2022-08-08T04:37:31.478Z,2.03
2022-08-08T04:40:06.844Z,2.15
2022-08-08T04:42:36.665Z,1.88
2022-08-08T04:45:05.564Z,1.90
2022-08-08T04:47:36.751Z,1.85
2022-08-08T04:50:24.213Z,2.00
2022-08-08T04:53:00.725Z,1.77
2022-08-08T04:55:47.291Z,1.67
2022-08-08T04:58:20.922Z,1.85
2022-08-08T05:00:51.513Z,1.90
2022-08-08T05:04:11.680Z,1.88
2022-08-08T05:06:13.384Z,2.00
2022-08-08T05:08:42.480Z,1.75
2022-08-08T05:11:23.952Z,1.80
2022-08-08T05:13:57.597Z,2.10
2022-08-08T05:16:51.363Z,1.80
2022-08-08T05:20:09.371Z,1.75
2022-08-08T05:22:10.114Z,1.85
2022-08-08T05:24:38.833Z,1.85
2022-08-08T05:27:08.269Z,1.70
2022-08-08T05:29:36.913Z,1.90
2022-08-08T05:32:09.613Z,1.73
2022-08-08T05:34:49.271Z,1.52
2022-08-08T05:37:39.128Z,2.08
2022-08-08T05:40:14.699Z,2.10
2022-08-08T05:42:44.437Z,1.90
2022-08-08T05:45:26.005Z,2.00
2022-08-08T05:48:08.800Z,1.95
2022-08-08T05:50:36.875Z,2.20
2022-08-08T05:53:54.641Z,2.42
2022-08-08T05:56:08.265Z,2.55
2022-08-08T05:58:57.131Z,2.70
2022-08-08T06:01:56.696Z,2.50
2022-08-08T06:04:22.927Z,2.45
2022-08-08T06:06:54.071Z,2.90
2022-08-08T06:10:00.005Z,2.42
2022-08-08T06:12:30.462Z,2.55
2022-08-08T06:15:03.888Z,2.45
2022-08-08T06:17:50.809Z,2.50
2022-08-08T06:20:28.663Z,2.50
2022-08-08T06:22:57.992Z,2.72
2022-08-08T06:26:34.585Z,2.78
2022-08-08T06:28:29.313Z,2.72
2022-08-08T06:31:00.989Z,3.22
2022-08-08T06:34:26.474Z,3.30
2022-08-08T06:36:53.617Z,2.80
2022-08-08T06:39:24.795Z,2.80
2022-08-08T06:42:02.968Z,2.60
2022-08-08T06:44:31.354Z,3.08
2022-08-08T06:46:59.847Z,2.80
2022-08-08T06:49:55.546Z,3.03
2022-08-08T06:52:17.299Z,3.30
2022-08-08T06:54:48.946Z,3.13
2022-08-08T06:57:16.500Z,3.10
2022-08-08T07:00:12.392Z,3.13
2022-08-08T07:02:34.837Z,3.00
2022-08-08T07:05:11.923Z,2.83
2022-08-08T07:07:55.370Z,2.85
2022-08-08T07:10:25.925Z,3.10
2022-08-08T07:12:54.522Z,2.97
2022-08-08T07:16:05.351Z,2.95
2022-08-08T07:18:43.466Z,2.75
2022-08-08T07:21:20.479Z,2.75
2022-08-08T07:24:02.958Z,2.60
2022-08-08T07:26:35.431Z,2.88
2022-08-08T07:29:08.101Z,2.80
2022-08-08T07:31:40.502Z,2.78
2022-08-08T07:34:10.461Z,2.97
2022-08-08T07:36:50.775Z,3.10
2022-08-08T07:39:56.260Z,2.90
2022-08-08T07:42:21.035Z,3.37
2022-08-08T07:45:01.947Z,3.50
2022-08-08T07:47:38.421Z,3.30
2022-08-08T07:50:08.348Z,3.20
2022-08-08T07:52:43.857Z,3.20
2022-08-08T07:55:19.395Z,3.08
2022-08-08T07:58:02.234Z,3.10
2022-08-08T08:00:39.578Z,3.20
2022-08-08T08:03:23.549Z,3.45
2022-08-08T08:05:53.262Z,3.17
2022-08-08T08:08:27.236Z,3.53
2022-08-08T08:10:59.756Z,3.50
2022-08-08T08:13:42.992Z,3.45
2022-08-08T08:16:32.183Z,3.30
2022-08-08T08:19:12.836Z,3.30
2022-08-08T08:21:58.223Z,3.08
2022-08-08T08:24:32.279Z,3.30
2022-08-08T08:27:02.775Z,3.20
2022-08-08T08:29:31.109Z,3.85
2022-08-08T08:32:03.257Z,3.05
2022-08-08T08:34:33.651Z,3.60
2022-08-08T08:37:03.447Z,3.38
2022-08-08T08:39:59.793Z,3.30
2022-08-08T08:42:29.154Z,3.55
2022-08-08T08:45:16.466Z,3.15
2022-08-08T08:47:55.031Z,3.03
2022-08-08T08:50:33.976Z,4.00
2022-08-08T08:53:55.572Z,3.00
2022-08-08T08:56:01.481Z,3.72
2022-08-08T08:58:41.576Z,2.90
2022-08-08T09:01:13.320Z,3.20
2022-08-08T09:03:47.254Z,3.22
2022-08-08T09:06:28.319Z,2.90
2022-08-08T09:09:25.823Z,3.38
2022-08-08T09:12:02.222Z,3.22
2022-08-08T09:14:35.397Z,3.10
2022-08-08T09:17:11.610Z,2.88
2022-08-08T09:22:00.131Z,3.03
2022-08-08T09:22:29.372Z,3.47
2022-08-08T09:24:58.639Z,3.10
2022-08-08T09:27:56.007Z,3.10
2022-08-08T09:30:17.708Z,3.00
2022-08-08T09:33:12.790Z,2.75
2022-08-08T09:35:49.266Z,3.00
2022-08-08T09:38:54.249Z,3.20
2022-08-08T09:42:15.116Z,3.00
2022-08-08T09:44:48.752Z,2.70
2022-08-08T09:47:26.490Z,3.03
2022-08-08T09:50:14.318Z,3.22
2022-08-08T09:52:57.503Z,3.67
2022-08-08T09:56:05.444Z,3.13
2022-08-08T09:58:25.824Z,3.05
2022-08-08T10:01:15.294Z,3.47
2022-08-08T10:03:56.235Z,3.25
2022-08-08T10:06:29.543Z,2.90
2022-08-08T10:08:57.672Z,3.00
2022-08-08T10:12:27.507Z,2.67
2022-08-08T10:14:34.850Z,2.72
2022-08-08T10:17:00.193Z,2.58
2022-08-08T10:19:46.171Z,3.25
2022-08-08T10:22:32.699Z,2.90
2022-08-08T10:25:05.398Z,2.80
2022-08-08T10:27:42.649Z,2.65
2022-08-08T10:30:16.250Z,3.15
2022-08-08T10:33:00.811Z,3.00
2022-08-08T10:36:19.913Z,3.03
2022-08-08T10:38:19.871Z,3.10
2022-08-08T10:40:52.043Z,2.78
2022-08-08T10:43:20.761Z,3.00
2022-08-08T10:45:57.176Z,3.03
2022-08-08T10:48:57.738Z,2.75
2022-08-08T10:51:40.942Z,2.60
2022-08-08T10:54:25.336Z,2.83
2022-08-08T10:57:03.824Z,3.03
2022-08-08T10:59:39.875Z,2.90
2022-08-08T11:02:09.621Z,3.05
2022-08-08T11:04:53.226Z,3.22
2022-08-08T11:08:37.139Z,3.10
2022-08-08T11:10:29.768Z,2.97
2022-08-08T11:13:28.177Z,3.50
2022-08-08T11:16:00.410Z,2.80
2022-08-08T11:18:30.623Z,3.10
2022-08-08T11:21:01.604Z,2.95
2022-08-08T11:23:39.334Z,2.80
2022-08-08T11:26:07.013Z,3.00
2022-08-08T11:28:38.799Z,2.90
2022-08-08T11:31:08.763Z,2.83
2022-08-08T11:36:23.245Z,2.78
2022-08-08T11:38:57.155Z,3.00
2022-08-08T11:41:32.464Z,2.90
2022-08-08T11:44:02.397Z,3.03
2022-08-08T11:46:32.513Z,2.92
2022-08-08T11:51:39.703Z,2.97
2022-08-08T11:54:27.025Z,3.13
2022-08-08T11:56:58.023Z,2.85
2022-08-08T11:59:58.727Z,3.13
2022-08-08T12:02:32.797Z,3.30
2022-08-08T12:05:12.350Z,3.10
2022-08-08T12:07:46.690Z,3.03
2022-08-08T12:10:18.756Z,3.10
2022-08-08T12:12:48.808Z,2.90
2022-08-08T12:15:41.718Z,2.85
2022-08-08T12:18:28.672Z,3.33
2022-08-08T12:20:58.885Z,3.25
2022-08-08T12:23:43.861Z,3.33
2022-08-08T12:26:28.580Z,3.00
2022-08-08T12:29:40.470Z,3.05
2022-08-08T12:32:17.355Z,3.40
2022-08-08T12:35:05.007Z,3.10
2022-08-08T12:38:01.293Z,3.00
2022-08-08T12:40:54.457Z,3.53
2022-08-08T12:43:47.932Z,3.55
2022-08-08T12:46:25.424Z,3.38
2022-08-08T12:49:25.290Z,3.30
2022-08-08T12:51:59.234Z,2.85
2022-08-08T12:54:33.389Z,3.10
2022-08-08T12:57:24.451Z,2.88
2022-08-08T13:00:04.685Z,2.75
2022-08-08T13:02:37.954Z,3.00
2022-08-08T13:05:27.148Z,2.95
2022-08-08T13:08:20.700Z,2.85
2022-08-08T13:10:56.406Z,3.00
2022-08-08T13:13:35.521Z,3.45
2022-08-08T13:16:26.029Z,2.58
2022-08-08T13:19:00.546Z,3.10
2022-08-08T13:21:53.624Z,3.08
2022-08-08T13:24:42.567Z,2.90
2022-08-08T13:27:22.320Z,3.20
2022-08-08T13:29:54.534Z,3.00
2022-08-08T13:32:27.029Z,3.03
2022-08-08T13:34:56.883Z,2.85
2022-08-08T13:37:51.890Z,2.67
2022-08-08T13:40:18.092Z,3.00
2022-08-08T13:42:56.051Z,2.78
2022-08-08T13:45:25.054Z,2.42
2022-08-08T13:47:58.465Z,2.92
2022-08-08T13:50:38.885Z,2.50
2022-08-08T13:53:24.294Z,2.70
2022-08-08T13:56:05.984Z,2.85
2022-08-08T14:01:19.550Z,2.47
2022-08-08T14:03:56.080Z,2.55
2022-08-08T14:06:33.145Z,2.67
2022-08-08T14:09:25.035Z,2.65
2022-08-08T14:11:50.022Z,2.47
2022-08-08T14:14:21.153Z,2.40
2022-08-08T14:16:53.013Z,2.83
2022-08-08T14:19:57.653Z,2.40
2022-08-08T14:22:25.563Z,2.67
2022-08-08T14:25:00.927Z,2.75
2022-08-08T14:27:37.443Z,2.72
2022-08-08T14:30:18.338Z,2.60
2022-08-08T14:32:53.082Z,2.55
2022-08-08T14:35:35.230Z,2.20
2022-08-08T14:38:32.973Z,2.47
2022-08-08T14:40:59.576Z,2.20
2022-08-08T14:44:02.188Z,2.25
2022-08-08T14:48:56.969Z,2.30
2022-08-08T14:51:52.103Z,2.50
2022-08-08T14:54:28.990Z,2.28
2022-08-08T14:56:58.151Z,2.40
2022-08-08T14:59:43.960Z,2.00
2022-08-08T15:02:15.663Z,2.58
2022-08-08T15:04:45.443Z,3.15
2022-08-08T15:07:22.361Z,2.72
2022-08-08T15:09:51.426Z,2.40
2022-08-08T15:12:27.478Z,2.22
2022-08-08T15:14:55.814Z,2.47
2022-08-08T15:17:23.429Z,1.92
2022-08-08T15:19:51.885Z,2.30
2022-08-08T15:22:23.539Z,2.30
2022-08-08T15:24:52.175Z,2.33
2022-08-08T15:27:58.442Z,2.20
2022-08-08T15:30:12.683Z,2.00
2022-08-08T15:32:43.311Z,2.30
2022-08-08T15:35:11.506Z,2.20
2022-08-08T15:37:43.737Z,2.40
2022-08-08T15:40:15.575Z,2.08
2022-08-08T15:42:47.453Z,2.10
2022-08-08T15:45:16.907Z,2.10
2022-08-08T15:48:04.137Z,2.20
2022-08-08T15:50:57.364Z,2.88
2022-08-08T15:53:33.216Z,2.60
2022-08-08T15:56:15.731Z,2.35
2022-08-08T15:58:46.060Z,2.38
2022-08-08T16:01:18.065Z,2.28
2022-08-08T16:03:46.059Z,2.03
2022-08-08T16:06:27.713Z,2.40
2022-08-08T16:13:00.868Z,2.28
2022-08-08T16:13:11.562Z,2.33
2022-08-08T16:14:34.849Z,2.30
2022-08-08T16:17:02.785Z,2.28
2022-08-08T16:19:56.811Z,2.40
2022-08-08T16:22:30.063Z,2.30
2022-08-08T16:24:58.923Z,2.22
2022-08-08T16:27:33.572Z,2.22
2022-08-08T16:30:12.982Z,2.22
2022-08-08T16:32:44.079Z,2.30
2022-08-08T16:35:16.371Z,2.40
2022-08-08T16:40:19.915Z,2.17
2022-08-08T16:42:51.884Z,2.40
2022-08-08T16:46:38.793Z,2.42
2022-08-08T16:48:09.512Z,2.50
2022-08-08T16:50:40.664Z,2.33
2022-08-08T16:55:05.726Z,2.38
2022-08-08T16:55:57.669Z,2.38
2022-08-08T16:58:32.457Z,2.25
2022-08-08T17:01:02.930Z,2.50
2022-08-08T17:04:01.268Z,2.20
2022-08-08T17:06:37.488Z,2.40
2022-08-08T17:09:15.502Z,2.50
2022-08-08T17:11:48.244Z,2.20
2022-08-08T17:14:19.400Z,2.05
2022-08-08T17:16:51.953Z,2.35
2022-08-08T17:19:29.990Z,2.40
2022-08-08T17:22:01.364Z,2.00
2022-08-08T17:24:31.020Z,2.55
2022-08-08T17:26:59.741Z,2.40
2022-08-08T17:29:28.379Z,2.42
2022-08-08T17:32:02.161Z,2.00
2022-08-08T17:34:48.604Z,2.33
2022-08-08T17:37:23.192Z,2.30
2022-08-08T17:40:05.776Z,2.30
2022-08-08T17:42:40.080Z,2.13
2022-08-08T17:45:08.150Z,2.53
2022-08-08T17:47:50.759Z,1.90
2022-08-08T17:50:18.686Z,2.30
2022-08-08T17:52:47.634Z,2.10
2022-08-08T17:56:07.548Z,2.08
2022-08-08T17:58:02.946Z,2.10
2022-08-08T18:00:31.403Z,2.20
2022-08-08T18:03:08.512Z,2.33
2022-08-08T18:05:48.946Z,2.30
2022-08-08T18:08:38.396Z,2.10
2022-08-08T18:11:16.752Z,2.30
2022-08-08T18:13:47.427Z,2.22
2022-08-08T18:16:20.423Z,2.30
2022-08-08T18:18:52.800Z,2.17
2022-08-08T18:21:59.956Z,2.10
2022-08-08T18:24:17.220Z,2.10
2022-08-08T18:26:54.868Z,2.40
2022-08-08T18:29:29.808Z,2.08
2022-08-08T18:32:00.352Z,2.10
2022-08-08T18:34:32.715Z,1.98
2022-08-08T18:37:06.391Z,2.13
2022-08-08T18:39:36.308Z,1.98
2022-08-08T18:42:11.606Z,2.00
2022-08-08T18:44:42.083Z,2.30
2022-08-08T18:47:09.353Z,2.20
2022-08-08T18:49:54.803Z,2.20
2022-08-08T18:52:24.523Z,2.10
2022-08-08T18:55:00.574Z,2.20
2022-08-08T18:57:45.011Z,2.15
2022-08-08T19:00:16.909Z,2.17
2022-08-08T19:02:55.701Z,2.00
2022-08-08T19:05:37.962Z,2.00
2022-08-08T19:08:25.450Z,2.20
2022-08-08T19:10:59.499Z,2.00
2022-08-08T19:13:38.238Z,2.15
2022-08-08T19:16:19.575Z,2.10
2022-08-08T19:18:53.066Z,2.20
2022-08-08T19:21:30.246Z,2.15
2022-08-08T19:24:00.309Z,1.98
2022-08-08T19:26:30.426Z,2.10
2022-08-08T19:28:59.652Z,2.00
2022-08-08T19:31:31.427Z,2.00
2022-08-08T19:34:29.802Z,1.90
2022-08-08T19:36:58.518Z,2.28
2022-08-08T19:39:35.053Z,2.10
2022-08-08T19:42:04.478Z,2.00
2022-08-08T19:44:42.828Z,1.90
2022-08-08T19:47:13.590Z,2.03
2022-08-08T19:49:43.405Z,2.03
2022-08-08T19:52:13.340Z,1.75
2022-08-08T19:54:41.498Z,1.92
2022-08-08T19:57:11.273Z,1.92
2022-08-08T19:59:44.169Z,2.00
2022-08-08T20:02:12.050Z,1.85
2022-08-08T20:04:39.367Z,1.90
2022-08-08T20:08:29.730Z,2.10
2022-08-08T20:09:59.833Z,1.80
2022-08-08T20:12:32.824Z,2.00
2022-08-08T20:15:10.507Z,1.73
2022-08-08T20:17:45.001Z,1.70
2022-08-08T20:20:19.323Z,1.83
2022-08-08T20:22:52.448Z,2.20
2022-08-08T20:25:22.186Z,1.98
2022-08-08T20:27:53.910Z,2.13
2022-08-08T20:30:53.239Z,2.17
2022-08-08T20:33:20.055Z,1.63
2022-08-08T20:35:58.091Z,1.90
2022-08-08T20:38:32.627Z,1.85
2022-08-08T20:41:12.235Z,1.60
2022-08-08T20:43:48.184Z,2.33
2022-08-08T20:46:17.346Z,1.83
2022-08-08T20:48:44.850Z,1.70
2022-08-08T20:51:14.418Z,1.88
2022-08-08T20:54:00.758Z,1.95
2022-08-08T20:56:35.071Z,2.00
2022-08-08T20:59:06.329Z,2.10
2022-08-08T21:02:05.738Z,2.22
2022-08-08T21:04:27.692Z,2.00
2022-08-08T21:06:56.146Z,1.85
2022-08-08T21:09:23.830Z,1.88
2022-08-08T21:12:03.063Z,2.13
2022-08-08T21:14:34.375Z,2.13
2022-08-08T21:17:06.778Z,2.10
2022-08-08T21:19:46.017Z,2.10
2022-08-08T21:22:15.903Z,1.67
2022-08-08T21:24:53.585Z,2.03
2022-08-08T21:28:05.301Z,1.85
2022-08-08T21:30:18.659Z,1.55
2022-08-08T21:32:51.957Z,1.90
2022-08-08T21:36:16.529Z,1.90
2022-08-08T21:38:16.107Z,2.00
2022-08-08T21:40:55.752Z,1.80
2022-08-08T21:43:33.874Z,2.00
2022-08-08T21:48:04.626Z,1.80
2022-08-08T21:48:55.459Z,2.15
2022-08-08T21:54:22.350Z,1.90
2022-08-08T21:54:32.945Z,2.20
2022-08-08T21:57:04.943Z,2.15
2022-08-08T22:00:01.776Z,1.90
2022-08-08T22:02:23.506Z,2.05
2022-08-08T22:04:59.186Z,2.00
2022-08-08T22:07:39.411Z,2.20
2022-08-08T22:10:28.595Z,1.80
2022-08-08T22:13:18.245Z,1.80
2022-08-08T22:15:59.411Z,1.88
2022-08-08T22:18:30.399Z,1.80
2022-08-08T22:21:01.626Z,1.90
2022-08-08T22:23:41.132Z,1.70
2022-08-08T22:26:29.366Z,1.85
2022-08-08T22:29:15.044Z,1.98
2022-08-08T22:32:01.939Z,1.83
2022-08-08T22:34:39.408Z,1.90
2022-08-08T22:37:14.753Z,2.05
2022-08-08T22:40:01.079Z,1.73
2022-08-08T22:42:34.516Z,2.03
2022-08-08T22:45:12.256Z,1.92
2022-08-08T22:47:48.581Z,2.00
2022-08-08T22:50:25.874Z,2.10
2022-08-08T22:54:19.496Z,2.28
2022-08-08T22:55:58.481Z,2.10
2022-08-08T22:58:34.092Z,2.08
2022-08-08T23:01:16.536Z,2.30
2022-08-08T23:03:58.100Z,2.15
2022-08-08T23:06:26.043Z,2.10
2022-08-08T23:08:59.092Z,2.00
2022-08-08T23:12:27.592Z,1.80
2022-08-08T23:14:21.278Z,2.17
2022-08-08T23:16:54.508Z,2.23
2022-08-08T23:19:32.386Z,2.08
2022-08-08T23:22:04.593Z,1.98
2022-08-08T23:24:36.554Z,2.28
2022-08-08T23:27:09.936Z,2.00
2022-08-08T23:29:38.012Z,2.15
2022-08-08T23:32:06.109Z,2.20
2022-08-08T23:34:38.939Z,2.42
2022-08-08T23:37:17.356Z,2.30
2022-08-08T23:39:55.487Z,2.30
2022-08-08T23:42:25.231Z,2.35
2022-08-08T23:44:55.031Z,2.40
2022-08-08T23:49:02.237Z,2.22
2022-08-08T23:50:14.969Z,2.22
2022-08-08T23:53:05.071Z,2.35
2022-08-08T23:55:33.029Z,2.78
2022-08-08T23:58:05.654Z,2.17
